Latest Coastal Weather Observations for Shark Bay Airport

IDW60701

Issued at 10:13 am WST Wednesday 23 August 2017 (issued every 10 minutes, with the page automatically refreshed every 10 minutes)

About coastal observations | Map of coastal stations | Coastal observations for WA | Marine services | Other Formats
Station Details ID: 006105 Name: SHARK BAY AIRPORT Lat: -25.89 Lon: 113.58 Height: 33.8 m
Data from the previous 72 hours. | See also: Recent months at Shark Bay Airport
Date/Time
WST
Temp
°C
Wind Pressure Rain since
9am
mm
Weather Cloud Vis
km
Sea
Height
m
Swell
Dir  Spd
kts
Gust
kts
hPa Trend Height
m
Period
s
Dir
23/10:00am 17.9 SE 14 19 1021.0 - 0.0 - - - - - - -
23/09:30am 17.5 SSE 11 16 1021.8 - 0.0 - - - - - - -
23/09:00am 16.1 SSE 12 18 1021.8 - 0.0 - - - - - - -
23/08:30am 15.7 SSE 11 16 1021.3 - 0.0 - - - - - - -
23/08:00am 14.9 SSE 9 13 1021.3 - 0.0 - - - - - - -
23/07:30am 14.5 SE 7 11 1021.1 - 0.0 - - - - - - -
23/07:00am 14.4 SSE 11 19 1020.3 - 0.0 - - - - - - -
23/06:30am 14.4 SSE 11 17 1019.7 - 0.0 - - - - - - -
23/06:00am 14.5 SSE 10 14 1020.3 - 0.0 - - - - - - -
23/05:30am 14.6 SSE 11 15 1020.0 - 0.0 - - - - - - -
23/05:00am 14.7 SSE 11 15 1019.7 - 0.0 - - - - - - -
23/04:30am 15.0 SSE 13 18 1019.4 - 0.0 - - - - - - -
23/04:00am 15.2 SSE 13 18 1019.5 - 0.0 - - - - - - -
23/03:30am 15.3 SSE 12 18 1019.8 - 0.0 - - - - - - -
23/03:00am 15.4 SSE 12 18 1019.9 - 0.0 - - - - - - -
23/02:30am 15.5 SSE 12 19 1020.1 - 0.0 - - - - - - -
23/02:00am 15.6 SSE 13 19 1020.1 - 0.0 - - - - - - -
23/01:30am 15.9 SSE 14 19 1019.9 - 0.0 - - - - - - -
23/01:00am 16.2 SSE 15 23 1020.2 - 0.0 - - - - - - -
23/12:30am 16.3 SSE 14 20 1020.3 - 0.0 - - - - - - -
23/12:00am 16.5 SSE 13 19 1020.5 - 0.0 - - - - - - -
 
Date/Time
WST
Temp
°C
Wind Pressure Rain since
9am
mm
Weather Cloud Vis
km
Sea
Height
m
Swell
Dir  Spd
kts
Gust
kts
hPa Trend Height
m
Period
s
Dir
22/11:30pm 16.7 S 15 24 1020.9 - 0.0 - - - - - - -
22/11:00pm 16.9 S 15 21 1020.8 - 0.0 - - - - - - -
22/10:30pm 17.1 S 15 24 1020.9 - 0.0 - - - - - - -
22/10:00pm 17.2 S 15 24 1020.7 - 0.0 - - - - - - -
22/09:50pm 17.3 S 16 26 1020.6 - 0.0 - - - - - - -
22/09:30pm 17.3 S 15 22 1020.7 - 0.0 - - - - - - -
22/09:00pm 17.4 S 15 21 1020.4 - 0.0 - - - - - - -
22/08:30pm 17.4 S 14 21 1020.6 - 0.0 - - - - - - -
22/08:00pm 17.4 S 15 21 1020.2 - 0.0 - - - - - - -
22/07:30pm 17.4 S 15 20 1019.8 - 0.0 - - - - - - -
22/07:00pm 17.6 S 15 21 1019.5 - 0.0 - - - - - - -
22/06:30pm 18.0 S 15 22 1019.0 - 0.0 - - - - - - -
22/06:00pm 18.5 S 15 21 1018.7 - 0.0 - - - - - - -
22/05:30pm 19.8 SSW 16 20 1018.1 - 0.0 - - - - - - -
22/05:00pm 20.3 S 17 25 1018.1 - 0.0 - - - - - - -
22/04:30pm 20.9 SSW 18 23 1017.8 - 0.0 - - - - - - -
22/04:00pm 21.6 SSW 17 23 1017.6 - 0.0 - - - - - - -
22/03:30pm 21.3 SSW 16 23 1017.8 - 0.0 - - - - - - -
22/03:00pm 22.1 SSW 17 23 1017.7 - 0.0 - - - - - - -
22/02:30pm 22.2 SSW 19 23 1017.6 - 0.0 - - - - - - -
22/02:00pm 22.7 SSW 17 24 1017.8 - 0.0 - - - - - - -
22/01:30pm 22.2 SSW 18 23 1017.8 - 0.0 - - - - - - -
22/01:00pm 22.6 S 15 22 1018.2 - 0.0 - - - - - - -
22/12:30pm 22.0 S 17 24 1018.6 - 0.0 - - - - - - -
22/12:00pm 21.4 SSE 17 24 1018.8 - 0.0 - - - - - - -
22/11:30am 21.3 S 17 23 1019.6 - 0.0 - - - - - - -
22/11:00am 19.6 S 18 24 1019.3 - 0.0 - - - - - - -
22/10:30am 19.7 S 19 27 1019.4 - 0.0 - - - - - - -
22/10:15am 20.2 SSE 18 28 1019.4 - 0.0 - - - - - - -
22/10:00am 18.8 S 20 28 1019.1 - 0.0 - - - - - - -
22/09:34am 18.8 SSE 19 29 1019.2 - 0.0 - - - - - - -
22/09:30am 19.2 SSE 18 27 1019.2 - 0.0 - - - - - - -
22/09:00am 17.9 SSE 20 27 1019.1 - 0.0 - - - - - - -
22/08:30am 16.5 SSE 16 24 1018.5 - 0.0 - - - - - - -
22/08:00am 15.1 S 14 19 1018.4 - 0.0 - - - - - - -
22/07:30am 14.2 S 13 18 1018.3 - 0.0 - - - - - - -
22/07:00am 14.0 S 13 19 1017.9 - 0.0 - - - - - - -
22/06:30am 14.3 SSE 14 23 1017.5 - 0.0 - - - - - - -
22/06:00am 14.8 S 15 22 1017.2 - 0.0 - - - - - - -
22/05:30am 15.1 S 15 22 1017.2 - 0.0 - - - - - - -
22/05:00am 15.1 S 15 23 1016.4 - 0.0 - - - - - - -
22/04:30am 15.2 S 16 22 1016.2 - 0.0 - - - - - - -
22/04:00am 15.2 S 16 23 1016.6 - 0.0 - - - - - - -
22/03:30am 15.3 S 16 25 1016.7 - 0.0 - - - - - - -
22/03:23am 15.3 S 15 25 1016.8 - 0.0 - - - - - - -
22/03:00am 15.5 S 17 22 1016.6 - 0.0 - - - - - - -
22/02:30am 15.8 S 16 21 1016.7 - 0.0 - - - - - - -
22/02:00am 16.1 S 14 20 1017.0 - 0.0 - - - - - - -
22/01:30am 16.3 S 13 19 1016.9 - 0.0 - - - - - - -
22/01:00am 16.5 S 14 19 1016.9 - 0.0 - - - - - - -
22/12:30am 16.7 S 14 23 1017.0 - 0.0 - - - - - - -
22/12:00am 16.9 S 14 20 1017.4 - 0.0 - - - - - - -
 
Date/Time
WST
Temp
°C
Wind Pressure Rain since
9am
mm
Weather Cloud Vis
km
Sea
Height
m
Swell
Dir  Spd
kts
Gust
kts
hPa Trend Height
m
Period
s
Dir
21/11:30pm 17.1 S 15 21 1017.4 - 0.0 - - - - - - -
21/11:00pm 17.2 S 14 20 1017.4 - 0.0 - - - - - - -
21/10:30pm 17.3 S 15 22 1017.2 - 0.0 - - - - - - -
21/10:00pm 17.2 S 15 20 1017.5 - 0.0 - - - - - - -
21/09:30pm 17.3 S 13 19 1017.7 - 0.0 - - - - - - -
21/09:00pm 17.4 S 14 19 1017.4 - 0.0 - - - - - - -
21/08:30pm 17.4 S 14 19 1017.0 - 0.0 - - - - - - -
21/08:00pm 17.5 S 14 21 1016.6 - 0.0 - - - - - - -
21/07:30pm 17.7 S 15 23 1016.7 - 0.0 - - - - - - -
21/07:00pm 18.0 S 14 22 1016.5 - 0.0 - - - - - - -
21/06:30pm 18.2 S 12 16 1016.2 - 0.0 - - - - - - -
21/06:00pm 18.8 S 13 20 1015.9 - 0.0 - - - - - - -
21/05:30pm 19.6 S 12 17 1016.1 - 0.0 - - - - - - -
21/05:00pm 20.1 S 14 19 1015.9 - 0.0 - - - - - - -
21/04:30pm 21.5 SSW 12 17 1015.5 - 0.0 - - - - - - -
21/04:00pm 22.4 S 11 17 1015.6 - 0.0 - - - - - - -
21/03:30pm 23.6 S 13 15 1015.4 - 0.0 - - - - - - -
21/03:00pm 21.7 S 12 20 1015.8 - 0.0 - - - - - - -
21/02:30pm 24.9 SE 10 14 1015.8 - 0.0 - - - - - - -
21/02:00pm 22.7 SSE 12 17 1015.7 - 0.0 - - - - - - -
21/01:30pm 23.4 SE 14 19 1015.6 - 0.0 - - - - - - -
21/01:00pm 24.0 SE 12 16 1016.6 - 0.0 - - - - - - -
21/12:30pm 22.7 SE 13 19 1017.3 - 0.0 - - - - - - -
21/12:00pm 21.3 SE 12 17 1017.9 - 0.0 - - - - - - -
21/11:30am 20.9 SE 12 17 1018.7 - 0.0 - - - - - - -
21/11:00am 19.9 ESE 13 19 1018.6 - 0.0 - - - - - - -
21/10:30am 20.1 SE 13 18 1019.2 - 0.0 - - - - - - -
21/10:00am 18.5 ESE 13 19 1019.8 - 0.0 - - - - - - -
21/09:30am 18.6 ESE 12 16 1020.1 - 0.0 - - - - - - -
21/09:00am 15.8 SE 13 17 1020.0 - 0.0 - - - - - - -
21/08:30am 15.2 SE 11 15 1020.1 - 0.0 - - - - - - -
21/08:00am 13.2 SE 10 14 1020.0 - 0.0 - - - - - - -
21/07:30am 11.9 SE 9 11 1019.7 - 0.0 - - - - - - -
21/07:00am 10.9 SE 9 12 1019.6 - 0.0 - - - - - - -
21/06:30am 10.5 SE 8 10 1019.3 - 0.0 - - - - - - -
21/06:00am 10.8 SE 8 11 1019.3 - 0.0 - - - - - - -
21/05:30am 11.0 SE 9 13 1019.3 - 0.0 - - - - - - -
21/05:00am 11.0 SE 8 11 1019.3 - 0.0 - - - - - - -
21/04:30am 11.4 SSE 9 13 1019.1 - 0.0 - - - - - - -
21/04:00am 11.8 SSE 10 13 1019.1 - 0.0 - - - - - - -
21/03:30am 12.1 SSE 11 15 1019.4 - 0.0 - - - - - - -
21/03:00am 12.4 SSE 11 15 1019.6 - 0.0 - - - - - - -
21/02:30am 12.7 SSE 12 17 1019.9 - 0.0 - - - - - - -
21/02:00am 12.8 SSE 11 16 1019.9 - 0.0 - - - - - - -
21/01:30am 13.1 SSE 11 16 1019.9 - 0.0 - - - - - - -
21/01:00am 13.4 SSE 12 17 1020.1 - 0.0 - - - - - - -
21/12:30am 13.5 SSE 12 15 1020.2 - 0.0 - - - - - - -
21/12:00am 13.6 SSE 11 15 1020.5 - 0.0 - - - - - - -
 
Date/Time
WST
Temp
°C
Wind Pressure Rain since
9am
mm
Weather Cloud Vis
km
Sea
Height
m
Swell
Dir  Spd
kts
Gust
kts
hPa Trend Height
m
Period
s
Dir
20/11:30pm 14.0 SSE 11 14 1020.7 - 0.0 - - - - - - -
20/11:00pm 14.5 SSE 11 15 1020.7 - 0.0 - - - - - - -
20/10:30pm 14.8 SSE 11 17 1020.7 - 0.0 - - - - - - -
20/10:00pm 15.3 SSE 11 16 1020.6 - 0.0 - - - - - - -
20/09:30pm 15.6 SSE 10 14 1020.5 - 0.0 - - - - - - -
20/09:00pm 15.8 S 10 14 1020.4 - 0.0 - - - - - - -
20/08:30pm 16.1 S 11 16 1020.3 - 0.0 - - - - - - -
20/08:00pm 16.4 S 12 18 1020.1 - 0.0 - - - - - - -
20/07:30pm 16.5 S 13 19 1019.9 - 0.0 - - - - - - -
20/07:00pm 16.7 S 13 17 1019.9 - 0.0 - - - - - - -
20/06:30pm 16.9 S 11 17 1019.9 - 0.0 - - - - - - -
20/06:00pm 17.7 S 15 21 1019.8 - 0.0 - - - - - - -
20/05:30pm 18.6 S 15 19 1019.6 - 0.0 - - - - - - -
20/05:00pm 19.8 S 15 19 1019.7 - 0.0 - - - - - - -
20/04:30pm 20.7 S 14 19 1019.6 - 0.0 - - - - - - -
20/04:00pm 21.2 S 17 24 1019.5 - 0.0 - - - - - - -
20/03:30pm 22.4 S 13 22 1019.7 - 0.0 - - - - - - -
20/03:00pm 21.9 SE 12 18 1019.9 - 0.0 - - - - - - -
20/02:30pm 21.8 SE 13 19 1020.1 - 0.0 - - - - - - -
20/02:00pm 21.5 SE 13 19 1020.6 - 0.0 - - - - - - -
20/01:30pm 21.1 SE 14 21 1021.1 - 0.0 - - - - - - -
20/01:00pm 20.9 SE 14 19 1021.8 - 0.0 - - - - - - -
20/12:30pm 21.1 SE 15 20 1022.5 - 0.0 - - - - - - -
20/12:00pm 19.8 SE 15 19 1023.2 - 0.0 - - - - - - -
20/11:30am 19.5 SE 13 19 1023.7 - 0.0 - - - - - - -
20/11:00am 18.4 SE 16 23 1024.1 - 0.0 - - - - - - -
20/10:30am 17.6 ESE 15 21 1024.4 - 0.0 - - - - - - -

Other Formats:

Comma delimited format used in spreadsheet applications
http://www.bom.gov.au/fwo/IDW60701/IDW60701.95402.axf

JavaScript Object Notation format (JSON) in row-major order
http://www.bom.gov.au/fwo/IDW60701/IDW60701.95402.json